createdAt,value
2022-09-21T00:00:22.990Z,77.69
2022-09-21T00:01:25.917Z,77.55
2022-09-21T00:02:22.935Z,77.36
2022-09-21T00:03:22.827Z,76.64
2022-09-21T00:04:22.777Z,77.08
2022-09-21T00:05:22.722Z,77.02
2022-09-21T00:06:22.667Z,77.02
2022-09-21T00:07:22.614Z,77.31
2022-09-21T00:08:22.561Z,77.02
2022-09-21T00:09:22.506Z,76.92
2022-09-21T00:10:22.477Z,76.89
2022-09-21T00:11:22.401Z,76.79
2022-09-21T00:12:22.348Z,76.50
2022-09-21T00:13:22.292Z,76.79
2022-09-21T00:14:22.245Z,77.02
2022-09-21T00:15:22.184Z,77.08
2022-09-21T00:16:22.279Z,77.11
2022-09-21T00:17:22.176Z,77.11
2022-09-21T00:18:22.026Z,77.11
2022-09-21T00:19:21.971Z,77.02
2022-09-21T00:20:21.922Z,76.98
2022-09-21T00:21:21.942Z,76.73
2022-09-21T00:22:21.814Z,76.92
2022-09-21T00:23:21.755Z,76.89
2022-09-21T00:24:21.705Z,77.02
2022-09-21T00:25:21.648Z,76.79
2022-09-21T00:26:21.595Z,77.02
2022-09-21T00:27:21.541Z,76.69
2022-09-21T00:28:21.489Z,76.79
2022-09-21T00:29:21.432Z,76.79
2022-09-21T00:30:21.386Z,77.08
2022-09-21T00:31:21.395Z,76.60
2022-09-21T00:32:21.275Z,76.31
2022-09-21T00:33:21.222Z,76.31
2022-09-21T00:34:21.167Z,76.60
2022-09-21T00:35:21.111Z,76.02
2022-09-21T00:36:21.059Z,76.60
2022-09-21T00:37:21.005Z,76.12
2022-09-21T00:38:20.960Z,76.12
2022-09-21T00:39:20.897Z,76.60
2022-09-21T00:40:20.881Z,76.12
2022-09-21T00:41:20.790Z,76.12
2022-09-21T00:42:20.739Z,76.40
2022-09-21T00:43:20.681Z,76.12
2022-09-21T00:44:20.630Z,76.12
2022-09-21T00:45:20.574Z,76.12
2022-09-21T00:46:20.531Z,76.12
2022-09-21T00:47:20.468Z,76.02
2022-09-21T00:48:20.415Z,76.50
2022-09-21T00:49:20.362Z,76.40
2022-09-21T00:50:20.310Z,76.50
2022-09-21T00:51:20.254Z,76.40
2022-09-21T00:52:20.201Z,76.21
2022-09-21T00:53:20.146Z,76.02
2022-09-21T00:54:20.184Z,75.83
2022-09-21T00:55:20.041Z,76.02
2022-09-21T00:56:19.988Z,76.12
2022-09-21T00:57:19.930Z,76.02
2022-09-21T00:58:19.879Z,76.12
2022-09-21T00:59:21.646Z,75.83
2022-09-21T01:00:19.771Z,76.02
2022-09-21T01:01:19.791Z,75.83
2022-09-21T01:02:19.795Z,76.02
2022-09-21T01:03:19.609Z,75.83
2022-09-21T01:04:19.558Z,75.93
2022-09-21T01:05:19.500Z,75.93
2022-09-21T01:06:19.454Z,75.93
2022-09-21T01:07:19.394Z,75.93
2022-09-21T01:08:19.345Z,76.02
2022-09-21T01:09:19.288Z,75.93
2022-09-21T01:10:19.234Z,75.64
2022-09-21T01:11:19.180Z,75.35
2022-09-21T01:12:19.126Z,75.35
2022-09-21T01:13:19.071Z,75.16
2022-09-21T01:14:19.019Z,75.35
2022-09-21T01:15:18.967Z,75.35
2022-09-21T01:16:18.966Z,75.45
2022-09-21T01:17:18.855Z,75.45
2022-09-21T01:18:18.808Z,75.35
2022-09-21T01:19:18.748Z,75.16
2022-09-21T01:20:18.697Z,75.54
2022-09-21T01:21:18.641Z,75.35
2022-09-21T01:22:18.590Z,75.16
2022-09-21T01:23:18.534Z,75.35
2022-09-21T01:24:18.483Z,75.07
2022-09-21T01:25:18.426Z,75.35
2022-09-21T01:26:18.374Z,75.26
2022-09-21T01:27:18.320Z,75.26
2022-09-21T01:28:18.267Z,75.26
2022-09-21T01:29:18.216Z,75.26
2022-09-21T01:30:18.158Z,75.35
2022-09-21T01:31:18.149Z,75.26
2022-09-21T01:32:18.053Z,75.16
2022-09-21T01:33:17.997Z,75.16
2022-09-21T01:34:17.948Z,74.97
2022-09-21T01:35:17.888Z,75.26
2022-09-21T01:36:17.836Z,75.64
2022-09-21T01:37:17.781Z,75.35
2022-09-21T01:38:17.729Z,75.35
2022-09-21T01:39:17.674Z,75.73
2022-09-21T01:40:17.643Z,75.73
2022-09-21T01:41:17.564Z,75.16
2022-09-21T01:42:17.517Z,75.35
2022-09-21T01:43:17.458Z,75.45
2022-09-21T01:44:17.406Z,75.26
2022-09-21T01:45:17.351Z,74.87
2022-09-21T01:46:17.298Z,75.26
2022-09-21T01:47:17.247Z,75.16
2022-09-21T01:48:17.191Z,75.07
2022-09-21T01:49:17.189Z,75.16
2022-09-21T01:50:17.089Z,75.22
2022-09-21T01:51:17.031Z,74.77
2022-09-21T01:52:16.976Z,74.97
2022-09-21T01:53:16.927Z,74.97
2022-09-21T01:54:16.867Z,75.26
2022-09-21T01:55:16.813Z,74.93
2022-09-21T01:56:16.759Z,74.68
2022-09-21T01:57:16.705Z,74.87
2022-09-21T01:58:16.651Z,74.68
2022-09-21T01:59:16.597Z,74.58
2022-09-21T02:00:16.544Z,74.77
2022-09-21T02:01:16.538Z,74.97
2022-09-21T02:02:16.466Z,74.68
2022-09-21T02:03:16.382Z,74.87
2022-09-21T02:04:16.328Z,74.87
2022-09-21T02:05:16.272Z,74.87
2022-09-21T02:06:16.225Z,74.97
2022-09-21T02:07:16.166Z,74.77
2022-09-21T02:08:16.113Z,74.97
2022-09-21T02:09:16.057Z,74.58
2022-09-21T02:10:16.005Z,74.58
2022-09-21T02:11:15.949Z,74.97
2022-09-21T02:12:19.131Z,74.36
2022-09-21T02:13:15.843Z,74.74
2022-09-21T02:14:15.795Z,74.40
2022-09-21T02:15:15.734Z,74.20
2022-09-21T02:16:15.727Z,74.26
2022-09-21T02:17:15.626Z,74.20
2022-09-21T02:18:15.573Z,74.07
2022-09-21T02:19:15.519Z,74.45
2022-09-21T02:20:15.470Z,74.49
2022-09-21T02:21:15.409Z,74.36
2022-09-21T02:22:15.363Z,74.30
2022-09-21T02:23:15.303Z,74.36
2022-09-21T02:24:15.251Z,74.40
2022-09-21T02:25:15.197Z,74.36
2022-09-21T02:26:15.143Z,74.84
2022-09-21T02:27:15.086Z,74.58
2022-09-21T02:28:15.037Z,74.36
2022-09-21T02:29:14.978Z,74.55
2022-09-21T02:30:14.928Z,74.65
2022-09-21T02:31:14.895Z,74.45
2022-09-21T02:32:14.820Z,74.36
2022-09-21T02:33:14.763Z,74.68
2022-09-21T02:34:14.710Z,74.55
2022-09-21T02:35:14.656Z,74.65
2022-09-21T02:36:14.603Z,73.97
2022-09-21T02:37:14.548Z,73.88
2022-09-21T02:38:14.500Z,73.97
2022-09-21T02:39:14.440Z,73.97
2022-09-21T02:40:14.428Z,74.16
2022-09-21T02:41:14.330Z,74.07
2022-09-21T02:42:14.278Z,73.97
2022-09-21T02:43:14.223Z,74.16
2022-09-21T02:44:14.170Z,74.16
2022-09-21T02:45:14.114Z,74.16
2022-09-21T02:46:14.123Z,74.07
2022-09-21T02:47:14.007Z,73.97
2022-09-21T02:48:13.957Z,74.16
2022-09-21T02:49:13.900Z,73.88
2022-09-21T02:50:13.847Z,74.16
2022-09-21T02:51:13.791Z,74.16
2022-09-21T02:52:13.739Z,73.69
2022-09-21T02:53:13.683Z,73.97
2022-09-21T02:54:13.658Z,73.97
2022-09-21T02:55:13.575Z,73.88
2022-09-21T02:56:13.522Z,73.69
2022-09-21T02:57:13.467Z,73.69
2022-09-21T02:58:13.415Z,74.36
2022-09-21T02:59:13.359Z,74.07
2022-09-21T03:00:13.308Z,73.88
2022-09-21T03:01:13.250Z,74.16
2022-09-21T03:02:13.293Z,74.07
2022-09-21T03:03:13.145Z,74.07
2022-09-21T03:04:13.091Z,74.07
2022-09-21T03:05:13.039Z,74.07
2022-09-21T03:06:12.985Z,74.26
2022-09-21T03:07:12.929Z,74.26
2022-09-21T03:08:12.872Z,73.88
2022-09-21T03:09:12.821Z,73.97
2022-09-21T03:10:12.773Z,73.97
2022-09-21T03:11:12.723Z,73.88
2022-09-21T03:12:12.659Z,73.69
2022-09-21T03:13:12.609Z,73.88
2022-09-21T03:14:12.548Z,73.97
2022-09-21T03:15:12.507Z,73.97
2022-09-21T03:16:12.486Z,74.16
2022-09-21T03:17:12.389Z,74.26
2022-09-21T03:18:12.339Z,73.79
2022-09-21T03:19:12.285Z,73.97
2022-09-21T03:20:12.294Z,73.69
2022-09-21T03:21:12.170Z,74.16
2022-09-21T03:22:12.116Z,74.16
2022-09-21T03:23:12.064Z,74.26
2022-09-21T03:24:12.008Z,73.97
2022-09-21T03:25:11.955Z,74.07
2022-09-21T03:26:11.906Z,73.88
2022-09-21T03:27:11.847Z,73.97
2022-09-21T03:28:11.802Z,73.79
2022-09-21T03:29:11.739Z,73.79
2022-09-21T03:30:11.684Z,73.79
2022-09-21T03:31:11.660Z,73.97
2022-09-21T03:32:11.574Z,73.97
2022-09-21T03:33:11.521Z,73.79
2022-09-21T03:34:11.471Z,73.88
2022-09-21T03:35:11.414Z,73.69
2022-09-21T03:36:11.363Z,73.30
2022-09-21T03:37:11.304Z,73.40
2022-09-21T03:38:11.254Z,73.40
2022-09-21T03:39:11.197Z,73.21
2022-09-21T03:40:11.194Z,73.11
2022-09-21T03:41:11.088Z,73.40
2022-09-21T03:42:11.040Z,73.11
2022-09-21T03:43:10.980Z,73.40
2022-09-21T03:44:10.925Z,73.11
2022-09-21T03:45:10.875Z,73.02
2022-09-21T03:46:10.859Z,73.11
2022-09-21T03:47:10.764Z,73.11
2022-09-21T03:48:10.710Z,73.30
2022-09-21T03:49:10.655Z,73.30
2022-09-21T03:50:10.600Z,73.40
2022-09-21T03:51:10.547Z,73.11
2022-09-21T03:52:10.491Z,73.21
2022-09-21T03:53:10.438Z,73.30
2022-09-21T03:54:10.382Z,73.50
2022-09-21T03:55:10.330Z,73.02
2022-09-21T03:56:10.278Z,73.40
2022-09-21T03:57:10.221Z,73.30
2022-09-21T03:58:10.171Z,73.30
2022-09-21T03:59:13.914Z,73.40
2022-09-21T04:00:10.058Z,73.30
2022-09-21T04:01:10.057Z,73.59
2022-09-21T04:02:09.950Z,73.40
2022-09-21T04:03:09.900Z,73.30
2022-09-21T04:04:09.844Z,73.02
2022-09-21T04:05:09.787Z,72.63
2022-09-21T04:06:09.736Z,72.92
2022-09-21T04:07:09.680Z,72.73
2022-09-21T04:08:09.624Z,72.54
2022-09-21T04:09:09.571Z,72.63
2022-09-21T04:10:09.515Z,72.73
2022-09-21T04:11:09.463Z,73.02
2022-09-21T04:12:09.408Z,73.02
2022-09-21T04:13:09.358Z,72.83
2022-09-21T04:14:09.410Z,72.83
2022-09-21T04:15:09.250Z,72.88
2022-09-21T04:16:09.268Z,72.73
2022-09-21T04:17:09.138Z,73.02
2022-09-21T04:18:09.083Z,72.92
2022-09-21T04:19:09.096Z,73.21
2022-09-21T04:20:08.973Z,72.92
2022-09-21T04:21:08.920Z,72.92
2022-09-21T04:22:08.866Z,72.92
2022-09-21T04:23:08.814Z,72.73
2022-09-21T04:24:08.761Z,72.73
2022-09-21T04:25:08.707Z,73.30
2022-09-21T04:26:08.648Z,72.73
2022-09-21T04:27:08.598Z,73.30
2022-09-21T04:28:08.547Z,72.79
2022-09-21T04:29:08.487Z,73.17
2022-09-21T04:30:08.475Z,72.60
2022-09-21T04:31:08.433Z,72.88
2022-09-21T04:32:08.323Z,72.83
2022-09-21T04:33:09.948Z,72.88
2022-09-21T04:34:08.235Z,73.11
2022-09-21T04:35:08.161Z,72.54
2022-09-21T04:36:08.107Z,73.02
2022-09-21T04:37:08.053Z,72.79
2022-09-21T04:38:07.997Z,73.02
2022-09-21T04:39:07.945Z,72.83
2022-09-21T04:40:08.013Z,72.63
2022-09-21T04:41:07.835Z,72.92
2022-09-21T04:42:07.780Z,72.79
2022-09-21T04:43:07.727Z,72.79
2022-09-21T04:44:07.673Z,72.73
2022-09-21T04:45:07.618Z,72.88
2022-09-21T04:46:07.657Z,72.69
2022-09-21T04:47:07.512Z,72.79
2022-09-21T04:48:07.453Z,72.79
2022-09-21T04:49:07.401Z,72.73
2022-09-21T04:50:07.345Z,72.92
2022-09-21T04:51:07.295Z,72.79
2022-09-21T04:52:07.239Z,72.88
2022-09-21T04:53:07.191Z,72.69
2022-09-21T04:54:07.128Z,72.31
2022-09-21T04:55:07.075Z,72.69
2022-09-21T04:56:07.024Z,72.79
2022-09-21T04:57:06.966Z,72.41
2022-09-21T04:58:06.911Z,72.31
2022-09-21T04:59:07.080Z,72.31
2022-09-21T05:00:06.802Z,72.60
2022-09-21T05:01:06.783Z,72.60
2022-09-21T05:02:06.758Z,72.60
2022-09-21T05:03:06.640Z,72.60
2022-09-21T05:04:06.584Z,72.69
2022-09-21T05:05:06.534Z,72.60
2022-09-21T05:06:06.479Z,72.50
2022-09-21T05:07:06.423Z,72.31
2022-09-21T05:08:06.367Z,72.50
2022-09-21T05:09:06.314Z,72.31
2022-09-21T05:10:06.258Z,72.31
2022-09-21T05:11:06.206Z,72.31
2022-09-21T05:12:06.151Z,72.31
2022-09-21T05:13:06.096Z,72.79
2022-09-21T05:14:06.949Z,72.69
2022-09-21T05:15:05.988Z,72.31
2022-09-21T05:16:06.002Z,72.12
2022-09-21T05:17:05.881Z,72.31
2022-09-21T05:18:05.829Z,72.22
2022-09-21T05:19:05.822Z,72.41
2022-09-21T05:20:05.715Z,72.31
2022-09-21T05:21:05.662Z,72.22
2022-09-21T05:22:05.606Z,72.60
2022-09-21T05:23:05.555Z,72.60
2022-09-21T05:24:05.497Z,72.41
2022-09-21T05:25:05.445Z,72.12
2022-09-21T05:26:05.390Z,72.22
2022-09-21T05:27:05.335Z,72.02
2022-09-21T05:28:05.305Z,72.22
2022-09-21T05:29:05.325Z,72.22
2022-09-21T05:30:05.243Z,72.50
2022-09-21T05:31:17.209Z,72.12
2022-09-21T05:32:05.062Z,72.31
2022-09-21T05:33:05.008Z,72.60
2022-09-21T05:34:05.021Z,72.12
2022-09-21T05:35:04.899Z,72.02
2022-09-21T05:36:04.845Z,72.12
2022-09-21T05:37:04.792Z,72.12
2022-09-21T05:38:04.736Z,72.22
2022-09-21T05:39:04.682Z,72.12
2022-09-21T05:40:04.643Z,72.31
2022-09-21T05:41:04.574Z,72.31
2022-09-21T05:42:04.517Z,72.31
2022-09-21T05:43:04.467Z,72.31
2022-09-21T05:44:04.413Z,72.31
2022-09-21T05:45:04.355Z,72.31
2022-09-21T05:46:04.358Z,72.50
2022-09-21T05:47:04.246Z,72.31
2022-09-21T05:48:04.192Z,72.41
2022-09-21T05:49:04.138Z,72.50
2022-09-21T05:50:04.087Z,72.31
2022-09-21T05:51:04.029Z,72.50
2022-09-21T05:52:03.972Z,72.41
2022-09-21T05:53:03.919Z,72.69
2022-09-21T05:54:03.863Z,72.69
2022-09-21T05:55:03.813Z,72.69
2022-09-21T05:56:03.758Z,72.50
2022-09-21T05:57:03.704Z,72.50
2022-09-21T05:58:03.652Z,72.22
2022-09-21T05:59:03.598Z,72.50
2022-09-21T06:00:03.538Z,72.31
2022-09-21T06:01:03.548Z,72.31
2022-09-21T06:02:03.479Z,72.31
2022-09-21T06:03:03.380Z,72.50
2022-09-21T06:04:03.319Z,72.22
2022-09-21T06:05:03.267Z,72.41
2022-09-21T06:06:03.217Z,72.12
2022-09-21T06:07:03.163Z,72.69
2022-09-21T06:08:03.103Z,72.31
2022-09-21T06:09:03.048Z,72.50
2022-09-21T06:10:02.992Z,72.60
2022-09-21T06:11:02.943Z,72.50
2022-09-21T06:12:02.888Z,72.60
2022-09-21T06:13:02.838Z,72.79
2022-09-21T06:14:02.773Z,72.50
2022-09-21T06:15:02.720Z,72.60
2022-09-21T06:16:02.667Z,72.79
2022-09-21T06:17:02.612Z,72.79
2022-09-21T06:18:02.560Z,72.88
2022-09-21T06:19:02.504Z,72.79
2022-09-21T06:20:02.447Z,72.60
2022-09-21T06:21:02.396Z,72.79
2022-09-21T06:22:02.359Z,72.69
2022-09-21T06:23:02.285Z,72.69
2022-09-21T06:24:02.228Z,72.79
2022-09-21T06:25:02.185Z,72.69
2022-09-21T06:26:02.119Z,72.88
2022-09-21T06:27:02.067Z,72.69
2022-09-21T06:28:02.011Z,72.98
2022-09-21T06:29:01.958Z,73.17
2022-09-21T06:30:01.910Z,72.41
2022-09-21T06:31:01.899Z,72.60
2022-09-21T06:32:01.793Z,72.98
2022-09-21T06:33:01.741Z,72.79
2022-09-21T06:34:01.684Z,73.17
2022-09-21T06:35:01.630Z,73.08
2022-09-21T06:36:01.574Z,72.98
2022-09-21T06:37:01.520Z,72.79
2022-09-21T06:38:01.469Z,72.88
2022-09-21T06:39:01.411Z,72.79
2022-09-21T06:40:01.425Z,72.79
2022-09-21T06:41:01.301Z,72.88
2022-09-21T06:42:01.248Z,72.79
2022-09-21T06:43:01.193Z,72.79
2022-09-21T06:44:07.972Z,73.27
2022-09-21T06:45:01.083Z,73.27
2022-09-21T06:46:01.049Z,73.27
2022-09-21T06:47:00.974Z,73.27
2022-09-21T06:48:00.920Z,73.55
2022-09-21T06:49:00.866Z,73.36
2022-09-21T06:50:00.829Z,72.98
2022-09-21T06:51:00.773Z,73.55
2022-09-21T06:52:00.702Z,73.75
2022-09-21T06:53:00.646Z,73.36
2022-09-21T06:54:00.596Z,73.84
2022-09-21T06:55:00.538Z,73.94
2022-09-21T06:56:00.483Z,73.84
2022-09-21T06:57:00.428Z,74.22
2022-09-21T06:58:00.373Z,74.13
2022-09-21T06:59:00.324Z,73.94
2022-09-21T07:00:00.263Z,74.22
2022-09-21T07:01:00.308Z,74.13
2022-09-21T07:02:00.288Z,74.04
2022-09-21T07:03:00.103Z,74.13
2022-09-21T07:04:00.045Z,74.80
2022-09-21T07:04:59.991Z,74.51
2022-09-21T07:05:59.938Z,74.41
2022-09-21T07:07:03.076Z,74.41
2022-09-21T07:08:00.418Z,74.32
2022-09-21T07:10:08.114Z,74.32
2022-09-21T07:10:59.668Z,74.41
2022-09-21T07:11:59.608Z,74.22
2022-09-21T07:12:59.557Z,74.70
2022-09-21T07:13:59.500Z,74.70
2022-09-21T07:14:59.451Z,74.70
2022-09-21T07:15:59.390Z,74.70
2022-09-21T07:16:59.336Z,74.70
2022-09-21T07:18:06.367Z,74.90
2022-09-21T07:19:10.011Z,74.80
2022-09-21T07:19:59.174Z,74.80
2022-09-21T07:20:59.123Z,74.61
2022-09-21T07:21:59.068Z,74.41
2022-09-21T07:22:59.985Z,74.90
2022-09-21T07:23:58.955Z,74.90
2022-09-21T07:24:58.897Z,75.18
2022-09-21T07:25:58.874Z,75.09
2022-09-21T07:26:58.790Z,75.47
2022-09-21T07:27:58.739Z,75.56
2022-09-21T07:28:58.680Z,75.76
2022-09-21T07:29:58.627Z,75.56
2022-09-21T07:30:58.572Z,75.27
2022-09-21T07:31:58.566Z,75.27
2022-09-21T07:32:58.500Z,75.27
2022-09-21T07:33:58.409Z,75.18
2022-09-21T07:34:58.357Z,75.27
2022-09-21T07:35:58.299Z,75.27
2022-09-21T07:36:58.246Z,75.27
2022-09-21T07:37:58.191Z,75.56
2022-09-21T07:38:58.134Z,75.47
2022-09-21T07:39:58.081Z,75.85
2022-09-21T07:40:58.025Z,75.37
2022-09-21T07:41:57.978Z,75.85
2022-09-21T07:43:00.487Z,75.85
2022-09-21T07:43:57.911Z,76.04
2022-09-21T07:45:04.368Z,75.66
2022-09-21T07:45:57.830Z,75.76
2022-09-21T07:46:57.702Z,75.76
2022-09-21T07:47:57.649Z,75.95
2022-09-21T07:48:57.587Z,75.85
2022-09-21T07:49:57.536Z,75.95
2022-09-21T07:50:57.479Z,75.66
2022-09-21T07:52:02.932Z,75.66
2022-09-21T07:52:57.370Z,75.76
2022-09-21T07:53:57.319Z,76.33
2022-09-21T07:54:57.269Z,76.04
2022-09-21T07:55:57.209Z,76.23
2022-09-21T07:56:57.153Z,76.23
2022-09-21T07:57:57.104Z,76.04
2022-09-21T07:58:57.059Z,76.04
2022-09-21T07:59:56.991Z,76.33
2022-09-21T08:00:56.961Z,76.04
2022-09-21T08:01:56.894Z,76.33
2022-09-21T08:02:56.825Z,76.23
2022-09-21T08:03:56.772Z,76.71
2022-09-21T08:04:56.715Z,76.90
2022-09-21T08:05:56.663Z,76.81
2022-09-21T08:06:56.606Z,76.81
2022-09-21T08:07:56.553Z,76.62
2022-09-21T08:08:57.971Z,76.62
2022-09-21T08:09:56.444Z,76.81
2022-09-21T08:10:56.397Z,76.62
2022-09-21T08:11:56.335Z,76.81
2022-09-21T08:12:56.279Z,76.81
2022-09-21T08:13:56.235Z,76.81
2022-09-21T08:14:56.173Z,76.81
2022-09-21T08:15:56.167Z,76.71
2022-09-21T08:16:56.063Z,77.28
2022-09-21T08:17:56.008Z,77.38
2022-09-21T08:18:55.956Z,77.76
2022-09-21T08:19:55.900Z,77.76
2022-09-21T08:20:55.842Z,77.57
2022-09-21T08:21:57.856Z,77.67
2022-09-21T08:22:55.754Z,77.57
2022-09-21T08:23:55.683Z,77.86
2022-09-21T08:24:55.626Z,77.42
2022-09-21T08:25:55.580Z,77.95
2022-09-21T08:26:55.519Z,77.70
2022-09-21T08:27:55.463Z,77.70
2022-09-21T08:28:55.425Z,77.67
2022-09-21T08:29:55.465Z,77.76
2022-09-21T08:30:55.300Z,77.76
2022-09-21T08:31:55.333Z,77.67
2022-09-21T08:32:55.188Z,77.99
2022-09-21T08:33:55.146Z,78.28
2022-09-21T08:34:55.080Z,78.09
2022-09-21T08:35:55.029Z,77.95
2022-09-21T08:36:55.911Z,78.57
2022-09-21T08:37:54.919Z,78.57
2022-09-21T08:38:54.893Z,78.09
2022-09-21T08:39:54.813Z,78.09
2022-09-21T08:40:55.596Z,77.99
2022-09-21T08:41:54.701Z,77.99
2022-09-21T08:42:54.644Z,77.99
2022-09-21T08:43:54.612Z,78.57
2022-09-21T08:44:54.536Z,78.19
2022-09-21T08:45:54.490Z,78.09
2022-09-21T08:46:54.485Z,77.90
2022-09-21T08:47:54.374Z,78.95
2022-09-21T08:48:54.323Z,78.28
2022-09-21T08:49:54.265Z,78.38
2022-09-21T08:50:54.208Z,78.28
2022-09-21T08:51:54.157Z,78.57
2022-09-21T08:52:54.104Z,78.76
2022-09-21T08:53:54.048Z,78.76
2022-09-21T08:54:53.992Z,78.57
2022-09-21T08:55:53.937Z,78.57
2022-09-21T08:57:05.090Z,78.76
2022-09-21T08:57:53.833Z,78.66
2022-09-21T08:58:53.773Z,78.76
2022-09-21T08:59:53.722Z,78.76
2022-09-21T09:00:53.744Z,78.66
2022-09-21T09:01:53.697Z,78.47
2022-09-21T09:02:53.555Z,78.57
2022-09-21T09:03:53.514Z,78.66
2022-09-21T09:04:53.448Z,78.66
2022-09-21T09:05:53.394Z,78.76
2022-09-21T09:06:53.339Z,78.57
2022-09-21T09:07:53.287Z,78.57
2022-09-21T09:08:53.229Z,78.57
2022-09-21T09:09:53.177Z,78.66
2022-09-21T09:10:53.119Z,78.66
2022-09-21T09:11:53.074Z,78.76
2022-09-21T09:12:59.520Z,78.76
2022-09-21T09:13:52.958Z,78.47
2022-09-21T09:14:52.905Z,78.47
2022-09-21T09:15:52.900Z,78.47
2022-09-21T09:16:52.807Z,78.47
2022-09-21T09:17:52.754Z,78.47
2022-09-21T09:18:52.685Z,78.57
2022-09-21T09:19:52.633Z,78.76
2022-09-21T09:20:52.608Z,78.76
2022-09-21T09:21:52.525Z,78.76
2022-09-21T09:22:52.466Z,78.57
2022-09-21T09:23:52.424Z,78.66
2022-09-21T09:24:52.357Z,78.66
2022-09-21T09:25:52.307Z,78.76
2022-09-21T09:26:53.015Z,78.66
2022-09-21T09:27:53.016Z,78.47
2022-09-21T09:28:53.251Z,78.76
2022-09-21T09:29:52.087Z,78.57
2022-09-21T09:30:52.032Z,78.57
2022-09-21T09:31:52.069Z,78.57
2022-09-21T09:32:51.923Z,78.95
2022-09-21T09:33:51.876Z,78.66
2022-09-21T09:34:51.816Z,78.76
2022-09-21T09:35:51.763Z,78.09
2022-09-21T09:36:58.744Z,78.95
2022-09-21T09:37:51.652Z,78.76
2022-09-21T09:38:51.597Z,78.76
2022-09-21T09:39:51.544Z,78.76
2022-09-21T09:40:51.487Z,78.95
2022-09-21T09:41:51.434Z,78.47
2022-09-21T09:42:51.381Z,78.47
2022-09-21T09:43:51.327Z,78.86
2022-09-21T09:44:51.271Z,78.95
2022-09-21T09:45:51.227Z,79.05
2022-09-21T09:46:51.278Z,78.76
2022-09-21T09:47:51.110Z,78.76
2022-09-21T09:48:54.174Z,78.66
2022-09-21T09:49:51.010Z,78.66
2022-09-21T09:50:50.944Z,78.86
2022-09-21T09:51:50.892Z,78.66
2022-09-21T09:52:50.836Z,79.14
2022-09-21T09:53:50.895Z,79.05
2022-09-21T09:54:50.729Z,78.09
2022-09-21T09:55:50.675Z,78.09
2022-09-21T09:56:50.619Z,77.99
2022-09-21T09:57:50.572Z,77.70
2022-09-21T09:58:50.512Z,77.99
2022-09-21T09:59:54.304Z,78.19
2022-09-21T10:00:50.407Z,78.38
2022-09-21T10:01:50.440Z,78.38
2022-09-21T10:02:50.293Z,78.66
2022-09-21T10:03:50.274Z,77.90
2022-09-21T10:04:50.186Z,77.99
2022-09-21T10:05:50.142Z,77.99
2022-09-21T10:06:50.076Z,77.99
2022-09-21T10:07:50.025Z,78.38
2022-09-21T10:08:49.975Z,78.19
2022-09-21T10:09:49.916Z,78.57
2022-09-21T10:10:49.860Z,77.99
2022-09-21T10:11:49.809Z,78.09
2022-09-21T10:12:49.750Z,78.13
2022-09-21T10:13:49.698Z,78.09
2022-09-21T10:14:49.643Z,78.38
2022-09-21T10:15:49.691Z,78.38
2022-09-21T10:16:49.556Z,78.22
2022-09-21T10:17:49.487Z,78.47
2022-09-21T10:18:49.435Z,78.47
2022-09-21T10:19:49.378Z,77.90
2022-09-21T10:20:49.324Z,77.99
2022-09-21T10:21:52.081Z,78.42
2022-09-21T10:22:49.216Z,78.61
2022-09-21T10:23:49.160Z,78.42
2022-09-21T10:24:49.105Z,78.32
2022-09-21T10:25:49.055Z,78.13
2022-09-21T10:26:48.996Z,78.13
2022-09-21T10:27:48.946Z,78.42
2022-09-21T10:28:48.888Z,77.99
2022-09-21T10:29:48.868Z,77.84
2022-09-21T10:30:48.868Z,78.32
2022-09-21T10:31:48.731Z,78.32
2022-09-21T10:32:48.671Z,77.55
2022-09-21T10:33:48.613Z,77.55
2022-09-21T10:34:48.564Z,78.03
2022-09-21T10:35:48.507Z,77.94
2022-09-21T10:36:48.454Z,77.75
2022-09-21T10:37:48.437Z,77.94
2022-09-21T10:38:48.346Z,77.94
2022-09-21T10:39:48.289Z,77.84
2022-09-21T10:40:48.286Z,77.55
2022-09-21T10:41:48.185Z,78.03
2022-09-21T10:42:48.131Z,77.36
2022-09-21T10:43:48.084Z,77.36
2022-09-21T10:44:48.020Z,77.65
2022-09-21T10:45:47.969Z,77.65
2022-09-21T10:46:48.082Z,77.55
2022-09-21T10:47:47.861Z,77.55
2022-09-21T10:48:47.811Z,77.75
2022-09-21T10:49:47.752Z,77.84
2022-09-21T10:50:47.697Z,77.46
2022-09-21T10:51:47.647Z,77.75
2022-09-21T10:52:47.587Z,77.55
2022-09-21T10:53:49.914Z,77.75
2022-09-21T10:54:47.480Z,77.55
2022-09-21T10:55:58.446Z,77.50
2022-09-21T10:56:47.372Z,77.50
2022-09-21T10:57:47.328Z,76.98
2022-09-21T10:58:47.269Z,76.98
2022-09-21T10:59:47.212Z,76.82
2022-09-21T11:00:47.189Z,76.92
2022-09-21T11:01:47.213Z,76.60
2022-09-21T11:02:47.093Z,76.69
2022-09-21T11:03:46.996Z,76.98
2022-09-21T11:04:46.943Z,76.92
2022-09-21T11:05:46.885Z,77.11
2022-09-21T11:06:46.838Z,76.79
2022-09-21T11:07:46.780Z,76.50
2022-09-21T11:08:46.727Z,76.79
2022-09-21T11:09:46.679Z,76.79
2022-09-21T11:10:46.619Z,76.50
2022-09-21T11:11:46.567Z,77.02
2022-09-21T11:12:46.532Z,76.82
2022-09-21T11:13:46.458Z,76.89
2022-09-21T11:14:46.400Z,76.92
2022-09-21T11:15:46.416Z,77.11
2022-09-21T11:16:46.295Z,77.21
2022-09-21T11:17:46.241Z,77.17
2022-09-21T11:18:46.191Z,77.11
2022-09-21T11:19:46.134Z,77.11
2022-09-21T11:20:46.075Z,76.35
2022-09-21T11:21:46.094Z,77.02
2022-09-21T11:22:45.972Z,76.82
2022-09-21T11:23:45.928Z,76.64
2022-09-21T11:24:45.858Z,76.64
2022-09-21T11:25:45.818Z,76.73
2022-09-21T11:26:45.755Z,77.11
2022-09-21T11:27:45.699Z,77.02
2022-09-21T11:28:45.645Z,76.92
2022-09-21T11:29:45.592Z,76.82
2022-09-21T11:30:48.679Z,76.82
2022-09-21T11:31:45.485Z,77.11
2022-09-21T11:32:45.429Z,76.92
2022-09-21T11:33:45.375Z,76.82
2022-09-21T11:34:45.333Z,77.11
2022-09-21T11:35:45.266Z,77.11
2022-09-21T11:36:45.217Z,77.11
2022-09-21T11:37:45.159Z,77.11
2022-09-21T11:38:45.110Z,77.21
2022-09-21T11:39:45.051Z,77.11
2022-09-21T11:40:44.998Z,77.11
2022-09-21T11:41:44.945Z,76.92
2022-09-21T11:42:44.891Z,76.92
2022-09-21T11:43:44.834Z,76.82
2022-09-21T11:44:44.782Z,77.11
2022-09-21T11:45:49.700Z,77.02
2022-09-21T11:46:44.679Z,77.11
2022-09-21T11:47:44.628Z,76.92
2022-09-21T11:48:44.567Z,76.92
2022-09-21T11:49:44.510Z,77.21
2022-09-21T11:50:44.512Z,77.21
2022-09-21T11:51:44.405Z,76.92
2022-09-21T11:52:44.347Z,77.02
2022-09-21T11:53:44.292Z,77.02
2022-09-21T11:54:44.241Z,76.92
2022-09-21T11:55:44.185Z,76.73
2022-09-21T11:56:44.132Z,76.82
2022-09-21T11:57:44.083Z,76.92
2022-09-21T11:58:44.023Z,77.11
2022-09-21T11:59:43.968Z,77.02
2022-09-21T12:00:43.915Z,76.64
2022-09-21T12:01:43.894Z,76.64
2022-09-21T12:02:44.058Z,76.64
2022-09-21T12:03:43.756Z,76.64
2022-09-21T12:04:43.700Z,76.64
2022-09-21T12:05:43.648Z,76.92
2022-09-21T12:06:43.594Z,76.82
2022-09-21T12:07:43.627Z,77.11
2022-09-21T12:08:43.486Z,76.54
2022-09-21T12:09:43.433Z,76.73
2022-09-21T12:10:43.378Z,76.44
2022-09-21T12:11:43.322Z,76.64
2022-09-21T12:12:43.270Z,76.54
2022-09-21T12:13:43.222Z,75.96
2022-09-21T12:14:43.166Z,76.15
2022-09-21T12:15:43.112Z,76.15
2022-09-21T12:16:43.083Z,76.35
2022-09-21T12:17:43.001Z,76.64
2022-09-21T12:18:45.424Z,76.15
2022-09-21T12:19:42.892Z,76.06
2022-09-21T12:20:42.841Z,76.15
2022-09-21T12:21:42.787Z,76.15
2022-09-21T12:22:42.733Z,76.15
2022-09-21T12:23:42.699Z,76.35
2022-09-21T12:24:42.625Z,76.15
2022-09-21T12:25:42.570Z,76.35
2022-09-21T12:26:42.520Z,76.54
2022-09-21T12:27:42.462Z,76.44
2022-09-21T12:28:42.411Z,76.35
2022-09-21T12:29:42.367Z,75.87
2022-09-21T12:30:42.379Z,75.96
2022-09-21T12:31:42.249Z,76.25
2022-09-21T12:32:42.196Z,75.96
2022-09-21T12:33:42.145Z,75.87
2022-09-21T12:34:42.089Z,76.06
2022-09-21T12:35:42.172Z,76.35
2022-09-21T12:36:42.218Z,75.68
2022-09-21T12:37:41.924Z,75.96
2022-09-21T12:38:41.873Z,76.06
2022-09-21T12:39:41.818Z,75.87
2022-09-21T12:40:41.821Z,76.06
2022-09-21T12:41:41.716Z,75.39
2022-09-21T12:42:41.657Z,75.39
2022-09-21T12:43:41.609Z,75.29
2022-09-21T12:44:45.660Z,75.29
2022-09-21T12:45:41.549Z,75.29
2022-09-21T12:46:41.442Z,75.68
2022-09-21T12:47:41.387Z,75.87
2022-09-21T12:48:41.336Z,75.87
2022-09-21T12:49:41.280Z,75.87
2022-09-21T12:50:41.229Z,76.06
2022-09-21T12:51:41.174Z,76.15
2022-09-21T12:52:41.120Z,75.96